sensor_id;sensor_type;location;lat;lon;timestamp;P1;durP1;ratioP1;P2;durP2;ratioP2
3177;SDS011;38141;42.666;23.344;2023-05-16T00:00:49;24.60;;;18.20;;
3177;SDS011;38141;42.666;23.344;2023-05-16T00:03:17;25.27;;;17.93;;
3177;SDS011;38141;42.666;23.344;2023-05-16T00:05:44;34.50;;;19.20;;
3177;SDS011;38141;42.666;23.344;2023-05-16T00:08:11;26.40;;;18.43;;
3177;SDS011;38141;42.666;23.344;2023-05-16T00:10:39;25.80;;;18.30;;
3177;SDS011;38141;42.666;23.344;2023-05-16T00:13:06;28.07;;;20.23;;
3177;SDS011;38141;42.666;23.344;2023-05-16T00:15:34;27.97;;;20.70;;
3177;SDS011;38141;42.666;23.344;2023-05-16T00:18:02;27.27;;;20.10;;
3177;SDS011;38141;42.666;23.344;2023-05-16T00:20:29;27.03;;;20.60;;
3177;SDS011;38141;42.666;23.344;2023-05-16T00:22:56;25.77;;;19.93;;
3177;SDS011;38141;42.666;23.344;2023-05-16T00:25:25;28.77;;;21.03;;
3177;SDS011;38141;42.666;23.344;2023-05-16T00:27:53;26.83;;;21.57;;
3177;SDS011;38141;42.666;23.344;2023-05-16T00:30:20;27.37;;;21.97;;
3177;SDS011;38141;42.666;23.344;2023-05-16T00:32:47;26.30;;;21.90;;
3177;SDS011;38141;42.666;23.344;2023-05-16T00:35:14;29.23;;;21.93;;
3177;SDS011;38141;42.666;23.344;2023-05-16T00:37:40;35.20;;;25.90;;
3177;SDS011;38141;42.666;23.344;2023-05-16T00:40:07;26.70;;;20.70;;
3177;SDS011;38141;42.666;23.344;2023-05-16T00:42:35;27.50;;;21.13;;
3177;SDS011;38141;42.666;23.344;2023-05-16T00:45:03;26.50;;;21.40;;
3177;SDS011;38141;42.666;23.344;2023-05-16T00:47:31;34.10;;;21.17;;
3177;SDS011;38141;42.666;23.344;2023-05-16T00:49:57;27.53;;;18.90;;
3177;SDS011;38141;42.666;23.344;2023-05-16T00:52:24;25.73;;;19.53;;
3177;SDS011;38141;42.666;23.344;2023-05-16T00:54:51;32.33;;;21.33;;
3177;SDS011;38141;42.666;23.344;2023-05-16T00:57:18;31.90;;;20.60;;
3177;SDS011;38141;42.666;23.344;2023-05-16T00:59:45;29.27;;;20.83;;
3177;SDS011;38141;42.666;23.344;2023-05-16T01:02:14;28.97;;;20.00;;
3177;SDS011;38141;42.666;23.344;2023-05-16T01:04:41;26.00;;;20.43;;
3177;SDS011;38141;42.666;23.344;2023-05-16T01:07:09;28.70;;;19.83;;
3177;SDS011;38141;42.666;23.344;2023-05-16T01:09:36;33.03;;;21.40;;
3177;SDS011;38141;42.666;23.344;2023-05-16T01:12:06;26.50;;;19.57;;
3177;SDS011;38141;42.666;23.344;2023-05-16T01:14:37;26.43;;;19.80;;
3177;SDS011;38141;42.666;23.344;2023-05-16T01:17:19;25.37;;;19.83;;
3177;SDS011;38141;42.666;23.344;2023-05-16T01:19:54;28.00;;;19.80;;
3177;SDS011;38141;42.666;23.344;2023-05-16T01:22:29;25.80;;;18.70;;
3177;SDS011;38141;42.666;23.344;2023-05-16T01:25:10;28.33;;;20.50;;
3177;SDS011;38141;42.666;23.344;2023-05-16T01:27:53;23.73;;;18.73;;
3177;SDS011;38141;42.666;23.344;2023-05-16T01:30:20;30.30;;;21.00;;
3177;SDS011;38141;42.666;23.344;2023-05-16T01:32:47;28.17;;;20.90;;
3177;SDS011;38141;42.666;23.344;2023-05-16T01:35:14;24.47;;;18.60;;
3177;SDS011;38141;42.666;23.344;2023-05-16T01:37:44;27.00;;;18.60;;
3177;SDS011;38141;42.666;23.344;2023-05-16T01:40:16;27.00;;;19.13;;
3177;SDS011;38141;42.666;23.344;2023-05-16T01:42:49;25.40;;;20.27;;
3177;SDS011;38141;42.666;23.344;2023-05-16T01:45:22;23.90;;;19.00;;
3177;SDS011;38141;42.666;23.344;2023-05-16T01:47:57;31.43;;;19.67;;
3177;SDS011;38141;42.666;23.344;2023-05-16T01:50:31;23.40;;;18.00;;
3177;SDS011;38141;42.666;23.344;2023-05-16T01:53:02;22.23;;;17.07;;
3177;SDS011;38141;42.666;23.344;2023-05-16T01:55:36;25.13;;;16.17;;
3177;SDS011;38141;42.666;23.344;2023-05-16T01:58:08;23.53;;;16.80;;
3177;SDS011;38141;42.666;23.344;2023-05-16T02:00:37;21.43;;;16.17;;
3177;SDS011;38141;42.666;23.344;2023-05-16T02:03:05;21.10;;;15.90;;
3177;SDS011;38141;42.666;23.344;2023-05-16T02:05:31;20.57;;;15.50;;
3177;SDS011;38141;42.666;23.344;2023-05-16T02:07:58;28.17;;;16.30;;
3177;SDS011;38141;42.666;23.344;2023-05-16T02:10:26;19.20;;;14.90;;
3177;SDS011;38141;42.666;23.344;2023-05-16T02:12:53;20.10;;;14.43;;
3177;SDS011;38141;42.666;23.344;2023-05-16T02:15:20;20.43;;;14.93;;
3177;SDS011;38141;42.666;23.344;2023-05-16T02:17:48;18.30;;;15.17;;
3177;SDS011;38141;42.666;23.344;2023-05-16T02:20:15;18.23;;;14.10;;
3177;SDS011;38141;42.666;23.344;2023-05-16T02:22:41;21.63;;;15.47;;
3177;SDS011;38141;42.666;23.344;2023-05-16T02:25:11;22.57;;;15.77;;
3177;SDS011;38141;42.666;23.344;2023-05-16T02:27:38;18.37;;;15.00;;
3177;SDS011;38141;42.666;23.344;2023-05-16T02:30:05;17.70;;;14.27;;
3177;SDS011;38141;42.666;23.344;2023-05-16T02:32:33;19.43;;;14.47;;
3177;SDS011;38141;42.666;23.344;2023-05-16T02:35:02;23.83;;;16.03;;
3177;SDS011;38141;42.666;23.344;2023-05-16T02:37:29;21.23;;;15.43;;
3177;SDS011;38141;42.666;23.344;2023-05-16T02:39:55;20.00;;;15.90;;
3177;SDS011;38141;42.666;23.344;2023-05-16T02:42:24;21.00;;;15.50;;
3177;SDS011;38141;42.666;23.344;2023-05-16T02:44:51;18.83;;;14.40;;
3177;SDS011;38141;42.666;23.344;2023-05-16T02:47:18;19.23;;;14.70;;
3177;SDS011;38141;42.666;23.344;2023-05-16T02:49:45;20.07;;;14.67;;
3177;SDS011;38141;42.666;23.344;2023-05-16T02:52:13;21.93;;;14.00;;
3177;SDS011;38141;42.666;23.344;2023-05-16T02:54:39;21.23;;;14.83;;
3177;SDS011;38141;42.666;23.344;2023-05-16T02:57:06;16.33;;;13.50;;
3177;SDS011;38141;42.666;23.344;2023-05-16T02:59:33;19.33;;;13.93;;
3177;SDS011;38141;42.666;23.344;2023-05-16T03:02:00;16.60;;;13.73;;
3177;SDS011;38141;42.666;23.344;2023-05-16T03:04:27;16.23;;;13.13;;
3177;SDS011;38141;42.666;23.344;2023-05-16T03:06:53;20.87;;;14.60;;
3177;SDS011;38141;42.666;23.344;2023-05-16T03:09:22;17.80;;;13.33;;
3177;SDS011;38141;42.666;23.344;2023-05-16T03:11:48;18.07;;;14.07;;
3177;SDS011;38141;42.666;23.344;2023-05-16T03:14:15;18.87;;;14.27;;
3177;SDS011;38141;42.666;23.344;2023-05-16T03:16:42;18.80;;;13.57;;
3177;SDS011;38141;42.666;23.344;2023-05-16T03:19:09;17.97;;;13.80;;
3177;SDS011;38141;42.666;23.344;2023-05-16T03:21:35;21.30;;;13.57;;
3177;SDS011;38141;42.666;23.344;2023-05-16T03:24:02;19.03;;;13.73;;
3177;SDS011;38141;42.666;23.344;2023-05-16T03:26:31;20.13;;;13.93;;
3177;SDS011;38141;42.666;23.344;2023-05-16T03:28:57;17.40;;;13.23;;
3177;SDS011;38141;42.666;23.344;2023-05-16T03:31:24;18.10;;;13.80;;
3177;SDS011;38141;42.666;23.344;2023-05-16T03:33:51;20.63;;;14.57;;
3177;SDS011;38141;42.666;23.344;2023-05-16T03:36:19;18.13;;;14.03;;
3177;SDS011;38141;42.666;23.344;2023-05-16T03:38:46;18.73;;;14.97;;
3177;SDS011;38141;42.666;23.344;2023-05-16T03:41:13;17.17;;;13.63;;
3177;SDS011;38141;42.666;23.344;2023-05-16T03:43:42;16.37;;;14.40;;
3177;SDS011;38141;42.666;23.344;2023-05-16T03:46:08;21.93;;;14.30;;
3177;SDS011;38141;42.666;23.344;2023-05-16T03:48:35;21.23;;;14.70;;
3177;SDS011;38141;42.666;23.344;2023-05-16T03:51:02;19.60;;;14.07;;
3177;SDS011;38141;42.666;23.344;2023-05-16T03:53:29;21.40;;;13.57;;
3177;SDS011;38141;42.666;23.344;2023-05-16T03:55:55;18.60;;;13.73;;
3177;SDS011;38141;42.666;23.344;2023-05-16T03:58:22;20.83;;;13.80;;
3177;SDS011;38141;42.666;23.344;2023-05-16T04:00:51;19.07;;;14.90;;
3177;SDS011;38141;42.666;23.344;2023-05-16T04:03:17;20.93;;;15.13;;
3177;SDS011;38141;42.666;23.344;2023-05-16T04:05:45;19.67;;;15.23;;
3177;SDS011;38141;42.666;23.344;2023-05-16T04:08:11;22.07;;;14.50;;
3177;SDS011;38141;42.666;23.344;2023-05-16T04:10:38;23.90;;;14.40;;
3177;SDS011;38141;42.666;23.344;2023-05-16T04:13:05;20.57;;;15.60;;
3177;SDS011;38141;42.666;23.344;2023-05-16T04:15:31;19.40;;;16.10;;
3177;SDS011;38141;42.666;23.344;2023-05-16T04:18:00;23.90;;;14.60;;
3177;SDS011;38141;42.666;23.344;2023-05-16T04:20:26;20.37;;;14.87;;
3177;SDS011;38141;42.666;23.344;2023-05-16T04:22:53;22.60;;;16.13;;
3177;SDS011;38141;42.666;23.344;2023-05-16T04:25:20;20.03;;;15.00;;
3177;SDS011;38141;42.666;23.344;2023-05-16T04:27:47;22.10;;;16.00;;
3177;SDS011;38141;42.666;23.344;2023-05-16T04:30:14;24.30;;;15.10;;
3177;SDS011;38141;42.666;23.344;2023-05-16T04:32:41;22.03;;;15.67;;
3177;SDS011;38141;42.666;23.344;2023-05-16T04:35:10;22.33;;;15.40;;
3177;SDS011;38141;42.666;23.344;2023-05-16T04:37:37;26.20;;;16.43;;
3177;SDS011;38141;42.666;23.344;2023-05-16T04:40:04;19.87;;;14.70;;
3177;SDS011;38141;42.666;23.344;2023-05-16T04:42:31;21.07;;;14.50;;
3177;SDS011;38141;42.666;23.344;2023-05-16T04:44:58;26.73;;;15.77;;
3177;SDS011;38141;42.666;23.344;2023-05-16T04:47:25;25.70;;;14.47;;
3177;SDS011;38141;42.666;23.344;2023-05-16T04:49:52;24.37;;;15.23;;
3177;SDS011;38141;42.666;23.344;2023-05-16T04:52:20;20.97;;;15.80;;
3177;SDS011;38141;42.666;23.344;2023-05-16T04:54:49;25.10;;;16.50;;
3177;SDS011;38141;42.666;23.344;2023-05-16T04:57:16;23.70;;;16.17;;
3177;SDS011;38141;42.666;23.344;2023-05-16T04:59:43;20.30;;;15.03;;
3177;SDS011;38141;42.666;23.344;2023-05-16T05:02:09;20.03;;;14.57;;
3177;SDS011;38141;42.666;23.344;2023-05-16T05:04:36;23.60;;;15.90;;
3177;SDS011;38141;42.666;23.344;2023-05-16T05:07:03;25.23;;;18.17;;
3177;SDS011;38141;42.666;23.344;2023-05-16T05:09:31;23.80;;;17.10;;
3177;SDS011;38141;42.666;23.344;2023-05-16T05:11:58;23.30;;;15.23;;
3177;SDS011;38141;42.666;23.344;2023-05-16T05:14:25;22.80;;;15.60;;
3177;SDS011;38141;42.666;23.344;2023-05-16T05:16:51;22.70;;;14.60;;
3177;SDS011;38141;42.666;23.344;2023-05-16T05:19:18;20.50;;;14.23;;
3177;SDS011;38141;42.666;23.344;2023-05-16T05:21:45;20.27;;;14.17;;
3177;SDS011;38141;42.666;23.344;2023-05-16T05:24:12;24.10;;;14.43;;
3177;SDS011;38141;42.666;23.344;2023-05-16T05:26:40;19.17;;;13.50;;
3177;SDS011;38141;42.666;23.344;2023-05-16T05:29:07;31.07;;;14.63;;
3177;SDS011;38141;42.666;23.344;2023-05-16T05:31:33;26.07;;;13.70;;
3177;SDS011;38141;42.666;23.344;2023-05-16T05:34:00;18.73;;;13.83;;
3177;SDS011;38141;42.666;23.344;2023-05-16T05:36:27;20.37;;;13.93;;
3177;SDS011;38141;42.666;23.344;2023-05-16T05:38:55;26.43;;;15.47;;
3177;SDS011;38141;42.666;23.344;2023-05-16T05:41:22;25.93;;;15.77;;
3177;SDS011;38141;42.666;23.344;2023-05-16T05:43:50;24.17;;;14.73;;
3177;SDS011;38141;42.666;23.344;2023-05-16T05:46:16;21.37;;;14.93;;
3177;SDS011;38141;42.666;23.344;2023-05-16T05:48:43;25.10;;;15.17;;
3177;SDS011;38141;42.666;23.344;2023-05-16T05:51:10;27.43;;;15.87;;
3177;SDS011;38141;42.666;23.344;2023-05-16T05:53:38;21.90;;;14.40;;
3177;SDS011;38141;42.666;23.344;2023-05-16T05:56:05;21.40;;;14.80;;
3177;SDS011;38141;42.666;23.344;2023-05-16T05:58:32;22.13;;;14.23;;
3177;SDS011;38141;42.666;23.344;2023-05-16T06:01:00;28.10;;;15.33;;
3177;SDS011;38141;42.666;23.344;2023-05-16T06:03:27;23.27;;;16.33;;
3177;SDS011;38141;42.666;23.344;2023-05-16T06:05:54;23.97;;;15.17;;
3177;SDS011;38141;42.666;23.344;2023-05-16T06:08:20;27.43;;;16.50;;
3177;SDS011;38141;42.666;23.344;2023-05-16T06:10:47;21.50;;;14.73;;
3177;SDS011;38141;42.666;23.344;2023-05-16T06:13:14;25.13;;;16.70;;
3177;SDS011;38141;42.666;23.344;2023-05-16T06:15:41;21.97;;;14.70;;
3177;SDS011;38141;42.666;23.344;2023-05-16T06:18:09;20.33;;;14.60;;
3177;SDS011;38141;42.666;23.344;2023-05-16T06:20:35;23.43;;;15.70;;
3177;SDS011;38141;42.666;23.344;2023-05-16T06:23:02;24.70;;;15.10;;
3177;SDS011;38141;42.666;23.344;2023-05-16T06:25:29;19.97;;;13.47;;
3177;SDS011;38141;42.666;23.344;2023-05-16T06:27:56;18.87;;;13.20;;
3177;SDS011;38141;42.666;23.344;2023-05-16T06:30:23;17.13;;;12.80;;
3177;SDS011;38141;42.666;23.344;2023-05-16T06:32:49;19.40;;;13.87;;
3177;SDS011;38141;42.666;23.344;2023-05-16T06:35:17;19.63;;;13.40;;
3177;SDS011;38141;42.666;23.344;2023-05-16T06:37:44;19.20;;;13.37;;
3177;SDS011;38141;42.666;23.344;2023-05-16T06:40:11;18.77;;;12.40;;
3177;SDS011;38141;42.666;23.344;2023-05-16T06:42:39;16.40;;;12.83;;
3177;SDS011;38141;42.666;23.344;2023-05-16T06:45:06;18.37;;;12.03;;
3177;SDS011;38141;42.666;23.344;2023-05-16T06:47:34;18.30;;;12.50;;
3177;SDS011;38141;42.666;23.344;2023-05-16T06:50:01;16.47;;;12.17;;
3177;SDS011;38141;42.666;23.344;2023-05-16T06:52:29;19.30;;;12.00;;
3177;SDS011;38141;42.666;23.344;2023-05-16T06:54:56;17.90;;;11.60;;
3177;SDS011;38141;42.666;23.344;2023-05-16T06:57:23;24.93;;;12.33;;
3177;SDS011;38141;42.666;23.344;2023-05-16T06:59:50;14.93;;;11.30;;
3177;SDS011;38141;42.666;23.344;2023-05-16T07:02:17;18.63;;;11.90;;
3177;SDS011;38141;42.666;23.344;2023-05-16T07:04:43;20.40;;;12.10;;
3177;SDS011;38141;42.666;23.344;2023-05-16T07:07:10;17.30;;;12.20;;
3177;SDS011;38141;42.666;23.344;2023-05-16T07:09:39;15.67;;;11.67;;
3177;SDS011;38141;42.666;23.344;2023-05-16T07:12:05;13.33;;;10.40;;
3177;SDS011;38141;42.666;23.344;2023-05-16T07:14:33;14.20;;;11.10;;
3177;SDS011;38141;42.666;23.344;2023-05-16T07:17:00;13.27;;;10.00;;
3177;SDS011;38141;42.666;23.344;2023-05-16T07:19:27;14.43;;;11.83;;
3177;SDS011;38141;42.666;23.344;2023-05-16T07:21:54;23.50;;;11.87;;
3177;SDS011;38141;42.666;23.344;2023-05-16T07:24:21;17.57;;;11.63;;
3177;SDS011;38141;42.666;23.344;2023-05-16T07:26:49;19.80;;;12.03;;
3177;SDS011;38141;42.666;23.344;2023-05-16T07:29:16;13.87;;;10.63;;
3177;SDS011;38141;42.666;23.344;2023-05-16T07:31:43;18.90;;;11.60;;
3177;SDS011;38141;42.666;23.344;2023-05-16T07:34:10;20.87;;;12.23;;
3177;SDS011;38141;42.666;23.344;2023-05-16T07:36:37;19.77;;;10.90;;
3177;SDS011;38141;42.666;23.344;2023-05-16T07:39:03;19.10;;;11.40;;
3177;SDS011;38141;42.666;23.344;2023-05-16T07:41:30;16.27;;;11.87;;
3177;SDS011;38141;42.666;23.344;2023-05-16T07:43:59;20.33;;;12.73;;
3177;SDS011;38141;42.666;23.344;2023-05-16T07:46:25;16.93;;;13.03;;
3177;SDS011;38141;42.666;23.344;2023-05-16T07:48:52;19.30;;;11.83;;
3177;SDS011;38141;42.666;23.344;2023-05-16T07:51:19;19.70;;;12.63;;
3177;SDS011;38141;42.666;23.344;2023-05-16T07:53:46;14.20;;;11.37;;
3177;SDS011;38141;42.666;23.344;2023-05-16T07:56:12;16.40;;;11.73;;
3177;SDS011;38141;42.666;23.344;2023-05-16T07:58:40;17.30;;;11.83;;
3177;SDS011;38141;42.666;23.344;2023-05-16T08:01:08;16.03;;;12.00;;
3177;SDS011;38141;42.666;23.344;2023-05-16T08:03:35;15.20;;;10.80;;
3177;SDS011;38141;42.666;23.344;2023-05-16T08:06:03;16.87;;;10.93;;
3177;SDS011;38141;42.666;23.344;2023-05-16T08:08:30;19.47;;;11.47;;
3177;SDS011;38141;42.666;23.344;2023-05-16T08:10:56;16.40;;;11.00;;
3177;SDS011;38141;42.666;23.344;2023-05-16T08:13:23;19.23;;;11.60;;
3177;SDS011;38141;42.666;23.344;2023-05-16T08:15:50;15.13;;;11.30;;
3177;SDS011;38141;42.666;23.344;2023-05-16T08:18:18;16.87;;;11.20;;
3177;SDS011;38141;42.666;23.344;2023-05-16T08:23:52;15.20;;;10.30;;
3177;SDS011;38141;42.666;23.344;2023-05-16T08:26:19;16.50;;;11.00;;
3177;SDS011;38141;42.666;23.344;2023-05-16T08:28:46;23.27;;;11.90;;
3177;SDS011;38141;42.666;23.344;2023-05-16T08:34:01;17.60;;;11.60;;
3177;SDS011;38141;42.666;23.344;2023-05-16T08:36:30;15.60;;;10.77;;
3177;SDS011;38141;42.666;23.344;2023-05-16T08:38:58;15.87;;;10.83;;
3177;SDS011;38141;42.666;23.344;2023-05-16T08:41:25;19.97;;;11.27;;
3177;SDS011;38141;42.666;23.344;2023-05-16T08:43:52;17.33;;;11.30;;
3177;SDS011;38141;42.666;23.344;2023-05-16T08:46:20;12.60;;;9.83;;
3177;SDS011;38141;42.666;23.344;2023-05-16T08:48:50;15.60;;;10.97;;
3177;SDS011;38141;42.666;23.344;2023-05-16T08:51:20;15.47;;;10.57;;
3177;SDS011;38141;42.666;23.344;2023-05-16T08:53:49;14.50;;;9.57;;
3177;SDS011;38141;42.666;23.344;2023-05-16T08:56:22;20.30;;;11.60;;
3177;SDS011;38141;42.666;23.344;2023-05-16T08:58:50;24.80;;;11.90;;
3177;SDS011;38141;42.666;23.344;2023-05-16T09:01:19;25.37;;;16.03;;
3177;SDS011;38141;42.666;23.344;2023-05-16T09:03:46;19.10;;;10.73;;
3177;SDS011;38141;42.666;23.344;2023-05-16T09:06:14;24.90;;;11.03;;
3177;SDS011;38141;42.666;23.344;2023-05-16T09:08:42;16.93;;;10.07;;
3177;SDS011;38141;42.666;23.344;2023-05-16T09:11:09;16.50;;;9.93;;
3177;SDS011;38141;42.666;23.344;2023-05-16T09:13:36;14.33;;;9.20;;
3177;SDS011;38141;42.666;23.344;2023-05-16T09:16:07;14.37;;;11.13;;
3177;SDS011;38141;42.666;23.344;2023-05-16T09:18:34;15.10;;;10.27;;
3177;SDS011;38141;42.666;23.344;2023-05-16T09:21:01;11.73;;;8.87;;
3177;SDS011;38141;42.666;23.344;2023-05-16T09:23:29;15.57;;;9.23;;
3177;SDS011;38141;42.666;23.344;2023-05-16T09:25:57;10.73;;;8.77;;
3177;SDS011;38141;42.666;23.344;2023-05-16T09:28:24;10.60;;;9.07;;
3177;SDS011;38141;42.666;23.344;2023-05-16T09:30:51;11.17;;;8.70;;
3177;SDS011;38141;42.666;23.344;2023-05-16T09:33:21;13.07;;;9.60;;
3177;SDS011;38141;42.666;23.344;2023-05-16T09:35:53;16.30;;;9.23;;
3177;SDS011;38141;42.666;23.344;2023-05-16T09:38:20;14.90;;;9.83;;
3177;SDS011;38141;42.666;23.344;2023-05-16T09:40:47;13.50;;;8.73;;
3177;SDS011;38141;42.666;23.344;2023-05-16T09:43:17;11.53;;;9.13;;
3177;SDS011;38141;42.666;23.344;2023-05-16T09:45:47;14.80;;;10.77;;
3177;SDS011;38141;42.666;23.344;2023-05-16T09:48:14;12.83;;;10.07;;
3177;SDS011;38141;42.666;23.344;2023-05-16T09:50:45;17.97;;;10.57;;
3177;SDS011;38141;42.666;23.344;2023-05-16T09:53:15;12.87;;;10.10;;
3177;SDS011;38141;42.666;23.344;2023-05-16T09:55:42;13.63;;;9.70;;
3177;SDS011;38141;42.666;23.344;2023-05-16T09:58:08;18.23;;;9.90;;
3177;SDS011;38141;42.666;23.344;2023-05-16T10:00:37;16.77;;;10.70;;
3177;SDS011;38141;42.666;23.344;2023-05-16T10:03:06;13.53;;;10.23;;
3177;SDS011;38141;42.666;23.344;2023-05-16T10:05:33;16.50;;;10.53;;
3177;SDS011;38141;42.666;23.344;2023-05-16T10:08:02;15.33;;;10.20;;
3177;SDS011;38141;42.666;23.344;2023-05-16T10:10:30;13.67;;;9.63;;
3177;SDS011;38141;42.666;23.344;2023-05-16T10:29:10;15.07;;;10.17;;
3177;SDS011;38141;42.666;23.344;2023-05-16T10:31:38;16.90;;;10.13;;
3177;SDS011;38141;42.666;23.344;2023-05-16T10:34:05;12.07;;;9.67;;
3177;SDS011;38141;42.666;23.344;2023-05-16T10:36:32;14.00;;;11.00;;
3177;SDS011;38141;42.666;23.344;2023-05-16T10:39:00;15.33;;;10.50;;
3177;SDS011;38141;42.666;23.344;2023-05-16T10:41:28;15.00;;;10.37;;
3177;SDS011;38141;42.666;23.344;2023-05-16T10:43:55;12.67;;;10.60;;
3177;SDS011;38141;42.666;23.344;2023-05-16T10:46:25;15.30;;;10.07;;
3177;SDS011;38141;42.666;23.344;2023-05-16T10:48:53;18.20;;;11.30;;
3177;SDS011;38141;42.666;23.344;2023-05-16T10:51:33;16.83;;;11.50;;
3177;SDS011;38141;42.666;23.344;2023-05-16T10:54:03;16.93;;;12.33;;
3177;SDS011;38141;42.666;23.344;2023-05-16T10:56:32;11.60;;;10.40;;
3177;SDS011;38141;42.666;23.344;2023-05-16T10:58:59;18.30;;;10.70;;
3177;SDS011;38141;42.666;23.344;2023-05-16T11:01:28;13.93;;;10.10;;
3177;SDS011;38141;42.666;23.344;2023-05-16T11:04:00;21.73;;;10.23;;
3177;SDS011;38141;42.666;23.344;2023-05-16T11:06:46;16.83;;;10.90;;
3177;SDS011;38141;42.666;23.344;2023-05-16T11:09:17;13.60;;;10.60;;
3177;SDS011;38141;42.666;23.344;2023-05-16T11:11:47;16.83;;;10.30;;
3177;SDS011;38141;42.666;23.344;2023-05-16T11:14:20;16.53;;;11.13;;
3177;SDS011;38141;42.666;23.344;2023-05-16T11:16:51;18.13;;;12.00;;
3177;SDS011;38141;42.666;23.344;2023-05-16T11:19:29;16.80;;;10.80;;
3177;SDS011;38141;42.666;23.344;2023-05-16T11:22:04;14.53;;;11.03;;
3177;SDS011;38141;42.666;23.344;2023-05-16T11:24:34;16.30;;;11.57;;
3177;SDS011;38141;42.666;23.344;2023-05-16T11:27:02;17.77;;;11.83;;
3177;SDS011;38141;42.666;23.344;2023-05-16T11:29:30;14.10;;;10.10;;
3177;SDS011;38141;42.666;23.344;2023-05-16T11:32:00;13.40;;;10.23;;
3177;SDS011;38141;42.666;23.344;2023-05-16T11:34:28;12.33;;;9.53;;
3177;SDS011;38141;42.666;23.344;2023-05-16T11:36:55;18.93;;;10.00;;
3177;SDS011;38141;42.666;23.344;2023-05-16T11:39:22;15.33;;;10.47;;
3177;SDS011;38141;42.666;23.344;2023-05-16T11:41:49;25.07;;;13.20;;
3177;SDS011;38141;42.666;23.344;2023-05-16T11:44:16;22.57;;;10.60;;
3177;SDS011;38141;42.666;23.344;2023-05-16T11:46:43;21.77;;;11.20;;
3177;SDS011;38141;42.666;23.344;2023-05-16T11:49:13;17.67;;;11.40;;
3177;SDS011;38141;42.666;23.344;2023-05-16T11:51:40;15.93;;;10.80;;
3177;SDS011;38141;42.666;23.344;2023-05-16T11:54:07;14.43;;;9.70;;
3177;SDS011;38141;42.666;23.344;2023-05-16T11:56:43;15.20;;;9.70;;
3177;SDS011;38141;42.666;23.344;2023-05-16T11:59:10;13.40;;;10.10;;
3177;SDS011;38141;42.666;23.344;2023-05-16T12:01:37;14.17;;;10.03;;
3177;SDS011;38141;42.666;23.344;2023-05-16T12:04:06;16.10;;;11.67;;
3177;SDS011;38141;42.666;23.344;2023-05-16T12:06:36;14.10;;;10.00;;
3177;SDS011;38141;42.666;23.344;2023-05-16T12:09:03;17.73;;;9.90;;
3177;SDS011;38141;42.666;23.344;2023-05-16T12:11:35;11.90;;;9.10;;
3177;SDS011;38141;42.666;23.344;2023-05-16T12:14:02;18.10;;;10.03;;
3177;SDS011;38141;42.666;23.344;2023-05-16T12:16:30;15.40;;;10.20;;
3177;SDS011;38141;42.666;23.344;2023-05-16T12:18:58;16.27;;;10.70;;
3177;SDS011;38141;42.666;23.344;2023-05-16T12:21:25;12.70;;;9.90;;
3177;SDS011;38141;42.666;23.344;2023-05-16T12:23:54;15.03;;;10.80;;
3177;SDS011;38141;42.666;23.344;2023-05-16T12:26:23;18.67;;;9.90;;
3177;SDS011;38141;42.666;23.344;2023-05-16T12:28:52;16.60;;;9.70;;
3177;SDS011;38141;42.666;23.344;2023-05-16T12:31:21;12.30;;;9.07;;
3177;SDS011;38141;42.666;23.344;2023-05-16T12:33:51;21.23;;;10.50;;
3177;SDS011;38141;42.666;23.344;2023-05-16T12:36:18;15.37;;;8.80;;
3177;SDS011;38141;42.666;23.344;2023-05-16T12:38:45;14.67;;;10.10;;
3177;SDS011;38141;42.666;23.344;2023-05-16T12:41:17;13.63;;;9.70;;
3177;SDS011;38141;42.666;23.344;2023-05-16T12:43:45;12.97;;;9.80;;
3177;SDS011;38141;42.666;23.344;2023-05-16T12:46:12;16.27;;;10.27;;
3177;SDS011;38141;42.666;23.344;2023-05-16T12:48:39;15.40;;;9.20;;
3177;SDS011;38141;42.666;23.344;2023-05-16T12:51:09;13.93;;;9.77;;
3177;SDS011;38141;42.666;23.344;2023-05-16T12:53:41;22.33;;;9.77;;
3177;SDS011;38141;42.666;23.344;2023-05-16T12:56:09;14.80;;;10.23;;
3177;SDS011;38141;42.666;23.344;2023-05-16T12:58:38;16.90;;;9.80;;
3177;SDS011;38141;42.666;23.344;2023-05-16T13:01:05;12.23;;;9.87;;
3177;SDS011;38141;42.666;23.344;2023-05-16T13:03:33;12.10;;;9.87;;
3177;SDS011;38141;42.666;23.344;2023-05-16T13:06:01;22.30;;;10.80;;
3177;SDS011;38141;42.666;23.344;2023-05-16T13:08:30;14.73;;;10.17;;
3177;SDS011;38141;42.666;23.344;2023-05-16T13:10:59;17.97;;;10.40;;
3177;SDS011;38141;42.666;23.344;2023-05-16T13:13:26;18.40;;;9.57;;
3177;SDS011;38141;42.666;23.344;2023-05-16T13:15:54;29.20;;;16.63;;
3177;SDS011;38141;42.666;23.344;2023-05-16T13:18:21;18.73;;;11.40;;
3177;SDS011;38141;42.666;23.344;2023-05-16T13:20:48;21.50;;;12.60;;
3177;SDS011;38141;42.666;23.344;2023-05-16T13:23:17;18.53;;;12.97;;
3177;SDS011;38141;42.666;23.344;2023-05-16T13:25:43;17.97;;;11.50;;
3177;SDS011;38141;42.666;23.344;2023-05-16T13:28:11;22.00;;;13.90;;
3177;SDS011;38141;42.666;23.344;2023-05-16T13:30:39;12.47;;;10.57;;
3177;SDS011;38141;42.666;23.344;2023-05-16T13:33:07;21.30;;;11.23;;
3177;SDS011;38141;42.666;23.344;2023-05-16T13:35:34;24.60;;;11.40;;
3177;SDS011;38141;42.666;23.344;2023-05-16T13:38:02;17.07;;;11.90;;
3177;SDS011;38141;42.666;23.344;2023-05-16T13:40:29;18.23;;;11.47;;
3177;SDS011;38141;42.666;23.344;2023-05-16T13:42:56;18.90;;;11.03;;
3177;SDS011;38141;42.666;23.344;2023-05-16T13:45:25;25.00;;;11.67;;
3177;SDS011;38141;42.666;23.344;2023-05-16T13:47:52;18.33;;;11.40;;
3177;SDS011;38141;42.666;23.344;2023-05-16T13:50:24;32.80;;;12.23;;
3177;SDS011;38141;42.666;23.344;2023-05-16T13:52:51;24.87;;;12.87;;
3177;SDS011;38141;42.666;23.344;2023-05-16T13:55:19;25.20;;;12.40;;
3177;SDS011;38141;42.666;23.344;2023-05-16T13:57:46;24.20;;;13.00;;
3177;SDS011;38141;42.666;23.344;2023-05-16T14:00:19;25.13;;;13.57;;
3177;SDS011;38141;42.666;23.344;2023-05-16T14:03:02;24.00;;;13.60;;
3177;SDS011;38141;42.666;23.344;2023-05-16T14:05:33;22.57;;;11.33;;
3177;SDS011;38141;42.666;23.344;2023-05-16T14:08:09;15.27;;;10.57;;
3177;SDS011;38141;42.666;23.344;2023-05-16T14:10:36;18.80;;;12.33;;
3177;SDS011;38141;42.666;23.344;2023-05-16T14:13:11;17.43;;;11.00;;
3177;SDS011;38141;42.666;23.344;2023-05-16T14:15:40;30.40;;;13.50;;
3177;SDS011;38141;42.666;23.344;2023-05-16T14:18:07;23.90;;;13.87;;
3177;SDS011;38141;42.666;23.344;2023-05-16T14:20:36;22.07;;;13.60;;
3177;SDS011;38141;42.666;23.344;2023-05-16T14:23:04;33.60;;;14.90;;
3177;SDS011;38141;42.666;23.344;2023-05-16T14:25:31;25.30;;;14.03;;
3177;SDS011;38141;42.666;23.344;2023-05-16T14:27:58;27.50;;;16.40;;
3177;SDS011;38141;42.666;23.344;2023-05-16T14:30:28;21.10;;;14.47;;
3177;SDS011;38141;42.666;23.344;2023-05-16T14:32:55;28.63;;;14.77;;
3177;SDS011;38141;42.666;23.344;2023-05-16T14:35:29;21.80;;;13.60;;
3177;SDS011;38141;42.666;23.344;2023-05-16T14:38:12;30.07;;;14.53;;
3177;SDS011;38141;42.666;23.344;2023-05-16T14:40:41;24.57;;;14.80;;
3177;SDS011;38141;42.666;23.344;2023-05-16T14:43:08;30.77;;;15.00;;
3177;SDS011;38141;42.666;23.344;2023-05-16T14:45:36;24.83;;;14.73;;
3177;SDS011;38141;42.666;23.344;2023-05-16T14:48:04;25.40;;;14.87;;
3177;SDS011;38141;42.666;23.344;2023-05-16T14:50:37;24.93;;;15.07;;